sensor_id;sensor_type;location;lat;lon;timestamp;temperature;humidity
285;DHT22;127;48.770;9.212;2022-07-22T00:00:31;20.10;99.90
285;DHT22;127;48.770;9.212;2022-07-22T00:03:00;20.00;99.90
285;DHT22;127;48.770;9.212;2022-07-22T00:05:29;20.00;99.90
285;DHT22;127;48.770;9.212;2022-07-22T00:08:07;20.00;99.90
285;DHT22;127;48.770;9.212;2022-07-22T00:10:36;19.90;99.90
285;DHT22;127;48.770;9.212;2022-07-22T00:13:05;19.90;99.90
285;DHT22;127;48.770;9.212;2022-07-22T00:15:34;19.80;99.90
285;DHT22;127;48.770;9.212;2022-07-22T00:18:02;19.80;99.90
285;DHT22;127;48.770;9.212;2022-07-22T00:20:31;19.80;99.90
285;DHT22;127;48.770;9.212;2022-07-22T00:23:05;19.90;99.90
285;DHT22;127;48.770;9.212;2022-07-22T00:25:34;19.80;99.90
285;DHT22;127;48.770;9.212;2022-07-22T00:28:03;19.90;99.90
285;DHT22;127;48.770;9.212;2022-07-22T00:30:32;19.80;99.90
285;DHT22;127;48.770;9.212;2022-07-22T00:33:01;19.80;99.90
285;DHT22;127;48.770;9.212;2022-07-22T00:35:29;19.80;99.90
285;DHT22;127;48.770;9.212;2022-07-22T00:37:58;19.80;99.90
285;DHT22;127;48.770;9.212;2022-07-22T00:40:29;19.80;99.90
285;DHT22;127;48.770;9.212;2022-07-22T00:42:59;19.80;99.90
285;DHT22;127;48.770;9.212;2022-07-22T00:45:28;19.80;99.90
285;DHT22;127;48.770;9.212;2022-07-22T00:48:00;19.80;99.90
285;DHT22;127;48.770;9.212;2022-07-22T00:50:28;19.80;99.90
285;DHT22;127;48.770;9.212;2022-07-22T00:52:57;19.70;99.90
285;DHT22;127;48.770;9.212;2022-07-22T00:55:28;19.70;99.90
285;DHT22;127;48.770;9.212;2022-07-22T00:57:57;19.70;99.90
285;DHT22;127;48.770;9.212;2022-07-22T01:00:29;19.60;99.90
285;DHT22;127;48.770;9.212;2022-07-22T01:02:58;19.60;99.90
285;DHT22;127;48.770;9.212;2022-07-22T01:05:26;19.50;99.90
285;DHT22;127;48.770;9.212;2022-07-22T01:07:59;19.50;99.90
285;DHT22;127;48.770;9.212;2022-07-22T01:10:33;19.50;99.90
285;DHT22;127;48.770;9.212;2022-07-22T01:13:02;19.40;99.90
285;DHT22;127;48.770;9.212;2022-07-22T01:15:31;19.40;99.90
285;DHT22;127;48.770;9.212;2022-07-22T01:18:02;19.40;99.90
285;DHT22;127;48.770;9.212;2022-07-22T01:20:37;19.30;99.90
285;DHT22;127;48.770;9.212;2022-07-22T01:23:07;19.30;99.90
285;DHT22;127;48.770;9.212;2022-07-22T01:25:36;19.30;99.90
285;DHT22;127;48.770;9.212;2022-07-22T01:28:04;19.20;99.90
285;DHT22;127;48.770;9.212;2022-07-22T01:30:33;19.10;99.90
285;DHT22;127;48.770;9.212;2022-07-22T01:33:07;19.00;99.90
285;DHT22;127;48.770;9.212;2022-07-22T01:35:38;19.00;99.90
285;DHT22;127;48.770;9.212;2022-07-22T01:38:09;18.90;99.90
285;DHT22;127;48.770;9.212;2022-07-22T01:40:37;18.80;99.90
285;DHT22;127;48.770;9.212;2022-07-22T01:43:07;18.80;99.90
285;DHT22;127;48.770;9.212;2022-07-22T01:45:36;18.70;99.90
285;DHT22;127;48.770;9.212;2022-07-22T01:48:06;18.60;99.90
285;DHT22;127;48.770;9.212;2022-07-22T01:50:38;18.50;99.90
285;DHT22;127;48.770;9.212;2022-07-22T01:53:07;18.50;99.90
285;DHT22;127;48.770;9.212;2022-07-22T01:55:36;18.40;99.90
285;DHT22;127;48.770;9.212;2022-07-22T01:58:05;18.40;99.90
285;DHT22;127;48.770;9.212;2022-07-22T02:00:34;18.40;99.90
285;DHT22;127;48.770;9.212;2022-07-22T02:03:05;18.40;99.90
285;DHT22;127;48.770;9.212;2022-07-22T02:05:39;18.40;99.90
285;DHT22;127;48.770;9.212;2022-07-22T02:08:10;18.30;99.90
285;DHT22;127;48.770;9.212;2022-07-22T02:10:39;18.20;99.90
285;DHT22;127;48.770;9.212;2022-07-22T02:13:09;18.10;99.90
285;DHT22;127;48.770;9.212;2022-07-22T02:15:38;18.10;99.90
285;DHT22;127;48.770;9.212;2022-07-22T02:18:11;18.10;99.90
285;DHT22;127;48.770;9.212;2022-07-22T02:20:46;18.00;99.90
285;DHT22;127;48.770;9.212;2022-07-22T02:23:18;18.00;99.90
285;DHT22;127;48.770;9.212;2022-07-22T02:25:46;18.00;99.90
285;DHT22;127;48.770;9.212;2022-07-22T02:28:18;18.00;99.90
285;DHT22;127;48.770;9.212;2022-07-22T02:30:47;18.00;99.90
285;DHT22;127;48.770;9.212;2022-07-22T02:33:15;18.00;99.90
285;DHT22;127;48.770;9.212;2022-07-22T02:35:47;18.00;99.90
285;DHT22;127;48.770;9.212;2022-07-22T02:38:18;17.90;99.90
285;DHT22;127;48.770;9.212;2022-07-22T02:40:47;17.90;99.90
285;DHT22;127;48.770;9.212;2022-07-22T02:43:15;17.90;99.90
285;DHT22;127;48.770;9.212;2022-07-22T02:45:44;17.90;99.90
285;DHT22;127;48.770;9.212;2022-07-22T02:48:13;17.80;99.90
285;DHT22;127;48.770;9.212;2022-07-22T02:50:48;17.80;99.90
285;DHT22;127;48.770;9.212;2022-07-22T02:53:19;17.80;99.90
285;DHT22;127;48.770;9.212;2022-07-22T02:55:48;17.90;99.90
285;DHT22;127;48.770;9.212;2022-07-22T02:58:19;17.90;99.90
285;DHT22;127;48.770;9.212;2022-07-22T03:00:49;17.90;99.90
285;DHT22;127;48.770;9.212;2022-07-22T03:03:17;17.80;99.90
285;DHT22;127;48.770;9.212;2022-07-22T03:05:55;17.80;99.90
285;DHT22;127;48.770;9.212;2022-07-22T03:08:29;17.80;99.90
285;DHT22;127;48.770;9.212;2022-07-22T03:11:00;17.70;99.90
285;DHT22;127;48.770;9.212;2022-07-22T03:13:28;17.70;99.90
285;DHT22;127;48.770;9.212;2022-07-22T03:15:57;17.70;99.90
285;DHT22;127;48.770;9.212;2022-07-22T03:18:26;17.70;99.90
285;DHT22;127;48.770;9.212;2022-07-22T03:20:57;17.70;99.90
285;DHT22;127;48.770;9.212;2022-07-22T03:23:26;17.60;99.90
285;DHT22;127;48.770;9.212;2022-07-22T03:25:57;17.60;99.90
285;DHT22;127;48.770;9.212;2022-07-22T03:28:26;17.60;99.90
285;DHT22;127;48.770;9.212;2022-07-22T03:30:55;17.50;99.90
285;DHT22;127;48.770;9.212;2022-07-22T03:33:23;17.50;99.90
285;DHT22;127;48.770;9.212;2022-07-22T03:35:52;17.50;99.90
285;DHT22;127;48.770;9.212;2022-07-22T03:38:26;17.50;99.90
285;DHT22;127;48.770;9.212;2022-07-22T03:40:55;17.50;99.90
285;DHT22;127;48.770;9.212;2022-07-22T03:43:26;17.50;99.90
285;DHT22;127;48.770;9.212;2022-07-22T03:45:54;17.50;99.90
285;DHT22;127;48.770;9.212;2022-07-22T03:48:23;17.40;99.90
285;DHT22;127;48.770;9.212;2022-07-22T03:50:52;17.40;99.90
285;DHT22;127;48.770;9.212;2022-07-22T03:53:20;17.40;99.90
285;DHT22;127;48.770;9.212;2022-07-22T03:55:52;17.40;99.90
285;DHT22;127;48.770;9.212;2022-07-22T03:58:23;17.40;99.90
285;DHT22;127;48.770;9.212;2022-07-22T04:00:52;17.40;99.90
285;DHT22;127;48.770;9.212;2022-07-22T04:03:21;17.40;99.90
285;DHT22;127;48.770;9.212;2022-07-22T04:05:49;17.40;99.90
285;DHT22;127;48.770;9.212;2022-07-22T04:08:18;17.40;99.90
285;DHT22;127;48.770;9.212;2022-07-22T04:10:47;17.40;99.90
285;DHT22;127;48.770;9.212;2022-07-22T04:13:18;17.40;99.90
285;DHT22;127;48.770;9.212;2022-07-22T04:15:49;17.50;99.90
285;DHT22;127;48.770;9.212;2022-07-22T04:18:18;17.50;99.90
285;DHT22;127;48.770;9.212;2022-07-22T04:20:46;17.50;99.90
285;DHT22;127;48.770;9.212;2022-07-22T04:23:15;17.60;99.90
285;DHT22;127;48.770;9.212;2022-07-22T04:25:44;17.60;99.90
285;DHT22;127;48.770;9.212;2022-07-22T04:28:13;17.60;99.90
285;DHT22;127;48.770;9.212;2022-07-22T04:30:44;17.60;99.90
285;DHT22;127;48.770;9.212;2022-07-22T04:33:13;17.60;99.90
285;DHT22;127;48.770;9.212;2022-07-22T04:35:42;17.60;99.90
285;DHT22;127;48.770;9.212;2022-07-22T04:38:15;17.60;99.90
285;DHT22;127;48.770;9.212;2022-07-22T04:40:46;17.60;99.90
285;DHT22;127;48.770;9.212;2022-07-22T04:43:14;17.70;99.90
285;DHT22;127;48.770;9.212;2022-07-22T04:45:49;17.70;99.90
285;DHT22;127;48.770;9.212;2022-07-22T04:48:18;17.70;99.90
285;DHT22;127;48.770;9.212;2022-07-22T04:50:47;17.70;99.90
285;DHT22;127;48.770;9.212;2022-07-22T04:53:15;17.70;99.90
285;DHT22;127;48.770;9.212;2022-07-22T04:55:46;17.70;99.90
285;DHT22;127;48.770;9.212;2022-07-22T04:58:15;17.70;99.90
285;DHT22;127;48.770;9.212;2022-07-22T05:00:52;17.70;99.90
285;DHT22;127;48.770;9.212;2022-07-22T05:03:20;17.70;99.90
285;DHT22;127;48.770;9.212;2022-07-22T05:05:50;17.70;99.90
285;DHT22;127;48.770;9.212;2022-07-22T05:08:18;17.60;99.90
285;DHT22;127;48.770;9.212;2022-07-22T05:10:47;17.70;99.90
285;DHT22;127;48.770;9.212;2022-07-22T05:13:16;17.70;99.90
285;DHT22;127;48.770;9.212;2022-07-22T05:15:44;17.70;99.90
285;DHT22;127;48.770;9.212;2022-07-22T05:18:16;17.80;99.90
285;DHT22;127;48.770;9.212;2022-07-22T05:20:47;17.70;99.90
285;DHT22;127;48.770;9.212;2022-07-22T05:23:15;17.80;99.90
285;DHT22;127;48.770;9.212;2022-07-22T05:25:44;17.90;99.90
285;DHT22;127;48.770;9.212;2022-07-22T05:28:13;17.90;99.90
285;DHT22;127;48.770;9.212;2022-07-22T05:30:41;17.90;99.90
285;DHT22;127;48.770;9.212;2022-07-22T05:33:10;18.00;99.90
285;DHT22;127;48.770;9.212;2022-07-22T05:35:43;18.10;99.90
285;DHT22;127;48.770;9.212;2022-07-22T05:38:12;18.20;99.90
285;DHT22;127;48.770;9.212;2022-07-22T05:40:41;18.20;99.90
285;DHT22;127;48.770;9.212;2022-07-22T05:43:10;18.20;99.90
285;DHT22;127;48.770;9.212;2022-07-22T05:45:38;18.30;99.90
285;DHT22;127;48.770;9.212;2022-07-22T05:51:21;18.50;99.90
285;DHT22;127;48.770;9.212;2022-07-22T05:53:50;18.60;99.90
285;DHT22;127;48.770;9.212;2022-07-22T05:56:22;18.70;99.90
285;DHT22;127;48.770;9.212;2022-07-22T05:58:51;18.70;99.90
285;DHT22;127;48.770;9.212;2022-07-22T06:01:21;18.80;99.90
285;DHT22;127;48.770;9.212;2022-07-22T06:03:50;18.90;99.90
285;DHT22;127;48.770;9.212;2022-07-22T06:06:23;19.00;99.90
285;DHT22;127;48.770;9.212;2022-07-22T06:08:54;19.00;99.90
285;DHT22;127;48.770;9.212;2022-07-22T06:11:27;19.10;99.90
285;DHT22;127;48.770;9.212;2022-07-22T06:13:56;19.30;99.90
285;DHT22;127;48.770;9.212;2022-07-22T06:16:25;19.40;99.90
285;DHT22;127;48.770;9.212;2022-07-22T06:18:54;19.30;99.90
285;DHT22;127;48.770;9.212;2022-07-22T06:21:27;19.30;99.90
285;DHT22;127;48.770;9.212;2022-07-22T06:23:56;19.40;99.90
285;DHT22;127;48.770;9.212;2022-07-22T06:26:25;19.50;99.90
285;DHT22;127;48.770;9.212;2022-07-22T06:28:53;19.60;99.90
285;DHT22;127;48.770;9.212;2022-07-22T06:31:22;19.60;99.90
285;DHT22;127;48.770;9.212;2022-07-22T06:33:51;19.80;99.90
285;DHT22;127;48.770;9.212;2022-07-22T06:36:20;19.70;99.90
285;DHT22;127;48.770;9.212;2022-07-22T06:38:51;19.80;99.90
285;DHT22;127;48.770;9.212;2022-07-22T06:41:22;19.80;99.90
285;DHT22;127;48.770;9.212;2022-07-22T06:43:51;19.80;99.90
285;DHT22;127;48.770;9.212;2022-07-22T06:46:20;19.90;99.90
285;DHT22;127;48.770;9.212;2022-07-22T06:48:49;20.00;99.90
285;DHT22;127;48.770;9.212;2022-07-22T06:51:17;20.10;99.90
285;DHT22;127;48.770;9.212;2022-07-22T06:53:46;20.20;99.90
285;DHT22;127;48.770;9.212;2022-07-22T06:56:17;20.20;99.90
285;DHT22;127;48.770;9.212;2022-07-22T06:58:46;20.40;99.90
285;DHT22;127;48.770;9.212;2022-07-22T07:01:17;20.50;99.90
285;DHT22;127;48.770;9.212;2022-07-22T07:03:47;20.60;99.90
285;DHT22;127;48.770;9.212;2022-07-22T07:06:19;20.70;99.90
285;DHT22;127;48.770;9.212;2022-07-22T07:08:48;20.70;99.90
285;DHT22;127;48.770;9.212;2022-07-22T07:11:20;20.80;99.90
285;DHT22;127;48.770;9.212;2022-07-22T07:13:48;20.90;99.90
285;DHT22;127;48.770;9.212;2022-07-22T07:16:17;21.00;99.90
285;DHT22;127;48.770;9.212;2022-07-22T07:18:46;21.00;99.90
285;DHT22;127;48.770;9.212;2022-07-22T07:21:15;21.10;99.90
285;DHT22;127;48.770;9.212;2022-07-22T07:23:43;21.20;99.90
285;DHT22;127;48.770;9.212;2022-07-22T07:26:12;21.30;99.90
285;DHT22;127;48.770;9.212;2022-07-22T07:28:44;21.40;99.90
285;DHT22;127;48.770;9.212;2022-07-22T07:31:13;21.50;99.90
285;DHT22;127;48.770;9.212;2022-07-22T07:33:42;21.70;99.90
285;DHT22;127;48.770;9.212;2022-07-22T07:36:11;21.80;99.90
285;DHT22;127;48.770;9.212;2022-07-22T07:38:40;21.80;99.90
285;DHT22;127;48.770;9.212;2022-07-22T07:41:09;21.90;99.90
285;DHT22;127;48.770;9.212;2022-07-22T07:43:38;22.10;99.90
285;DHT22;127;48.770;9.212;2022-07-22T07:46:13;22.20;99.90
285;DHT22;127;48.770;9.212;2022-07-22T07:48:42;22.40;99.90
285;DHT22;127;48.770;9.212;2022-07-22T07:51:12;22.40;99.90
285;DHT22;127;48.770;9.212;2022-07-22T07:53:44;22.40;99.90
285;DHT22;127;48.770;9.212;2022-07-22T07:56:13;22.70;99.90
285;DHT22;127;48.770;9.212;2022-07-22T07:58:41;22.90;99.90
285;DHT22;127;48.770;9.212;2022-07-22T08:01:13;22.80;99.90
285;DHT22;127;48.770;9.212;2022-07-22T08:03:41;22.70;99.90
285;DHT22;127;48.770;9.212;2022-07-22T08:06:10;22.70;99.90
285;DHT22;127;48.770;9.212;2022-07-22T08:08:39;22.60;99.90
285;DHT22;127;48.770;9.212;2022-07-22T08:11:09;22.70;99.90
285;DHT22;127;48.770;9.212;2022-07-22T08:13:38;22.90;99.90
285;DHT22;127;48.770;9.212;2022-07-22T08:16:07;23.10;99.90
285;DHT22;127;48.770;9.212;2022-07-22T08:18:39;23.40;99.90
285;DHT22;127;48.770;9.212;2022-07-22T08:21:11;23.70;99.90
285;DHT22;127;48.770;9.212;2022-07-22T08:23:41;23.90;99.90
285;DHT22;127;48.770;9.212;2022-07-22T08:26:10;24.00;99.90
285;DHT22;127;48.770;9.212;2022-07-22T08:28:41;24.20;99.90
285;DHT22;127;48.770;9.212;2022-07-22T08:31:10;24.20;99.90
285;DHT22;127;48.770;9.212;2022-07-22T08:33:42;24.40;99.90
285;DHT22;127;48.770;9.212;2022-07-22T08:36:10;24.50;99.90
285;DHT22;127;48.770;9.212;2022-07-22T08:38:39;24.70;99.90
285;DHT22;127;48.770;9.212;2022-07-22T08:41:08;24.80;99.90
285;DHT22;127;48.770;9.212;2022-07-22T08:43:38;25.10;99.90
285;DHT22;127;48.770;9.212;2022-07-22T08:46:09;25.20;99.90
285;DHT22;127;48.770;9.212;2022-07-22T08:48:41;25.50;99.90
285;DHT22;127;48.770;9.212;2022-07-22T08:51:11;25.80;99.90
285;DHT22;127;48.770;9.212;2022-07-22T08:53:40;26.00;99.90
285;DHT22;127;48.770;9.212;2022-07-22T08:56:12;26.20;99.90
285;DHT22;127;48.770;9.212;2022-07-22T08:58:44;26.20;99.90
285;DHT22;127;48.770;9.212;2022-07-22T09:01:19;26.20;99.90
285;DHT22;127;48.770;9.212;2022-07-22T09:03:52;26.30;99.90
285;DHT22;127;48.770;9.212;2022-07-22T09:06:22;26.80;99.90
285;DHT22;127;48.770;9.212;2022-07-22T09:08:55;27.40;99.90
285;DHT22;127;48.770;9.212;2022-07-22T09:11:28;28.10;99.90
285;DHT22;127;48.770;9.212;2022-07-22T09:13:59;28.90;99.90
285;DHT22;127;48.770;9.212;2022-07-22T09:16:44;29.20;99.90
285;DHT22;127;48.770;9.212;2022-07-22T09:19:31;30.30;99.90
285;DHT22;127;48.770;9.212;2022-07-22T09:22:00;31.00;99.90
285;DHT22;127;48.770;9.212;2022-07-22T09:24:32;31.90;99.90
285;DHT22;127;48.770;9.212;2022-07-22T09:27:01;33.40;99.90
285;DHT22;127;48.770;9.212;2022-07-22T09:29:32;34.30;99.90
285;DHT22;127;48.770;9.212;2022-07-22T09:32:01;35.10;99.90
285;DHT22;127;48.770;9.212;2022-07-22T09:34:34;35.80;99.90
285;DHT22;127;48.770;9.212;2022-07-22T09:37:03;35.40;99.90
285;DHT22;127;48.770;9.212;2022-07-22T09:39:37;35.60;99.90
285;DHT22;127;48.770;9.212;2022-07-22T09:42:10;35.70;99.90
285;DHT22;127;48.770;9.212;2022-07-22T09:44:43;35.60;99.90
285;DHT22;127;48.770;9.212;2022-07-22T09:47:27;35.90;99.90
285;DHT22;127;48.770;9.212;2022-07-22T09:50:06;36.30;99.90
285;DHT22;127;48.770;9.212;2022-07-22T09:53:00;36.20;99.90
285;DHT22;127;48.770;9.212;2022-07-22T09:55:29;36.90;99.90
285;DHT22;127;48.770;9.212;2022-07-22T09:57:59;36.80;99.90
285;DHT22;127;48.770;9.212;2022-07-22T10:00:28;37.20;99.90
285;DHT22;127;48.770;9.212;2022-07-22T10:03:00;36.30;99.90
285;DHT22;127;48.770;9.212;2022-07-22T10:05:35;34.20;99.90
285;DHT22;127;48.770;9.212;2022-07-22T10:08:06;34.70;99.90
285;DHT22;127;48.770;9.212;2022-07-22T10:10:36;33.90;99.90
285;DHT22;127;48.770;9.212;2022-07-22T10:13:06;34.50;99.90
285;DHT22;127;48.770;9.212;2022-07-22T10:15:36;35.60;99.90
285;DHT22;127;48.770;9.212;2022-07-22T10:18:07;35.70;99.90
285;DHT22;127;48.770;9.212;2022-07-22T10:20:40;36.30;99.90
285;DHT22;127;48.770;9.212;2022-07-22T10:23:11;36.40;99.90
285;DHT22;127;48.770;9.212;2022-07-22T10:25:51;37.70;99.90
285;DHT22;127;48.770;9.212;2022-07-22T10:28:23;36.90;99.90
285;DHT22;127;48.770;9.212;2022-07-22T10:30:52;37.30;99.90
285;DHT22;127;48.770;9.212;2022-07-22T10:33:21;37.70;99.90
285;DHT22;127;48.770;9.212;2022-07-22T10:36:06;37.30;99.90
285;DHT22;127;48.770;9.212;2022-07-22T10:38:36;37.30;99.90
285;DHT22;127;48.770;9.212;2022-07-22T10:41:32;38.00;99.90
285;DHT22;127;48.770;9.212;2022-07-22T10:44:09;36.90;99.90
285;DHT22;127;48.770;9.212;2022-07-22T10:46:49;35.80;99.90
285;DHT22;127;48.770;9.212;2022-07-22T10:49:28;37.20;99.90
285;DHT22;127;48.770;9.212;2022-07-22T10:52:13;38.90;99.90
285;DHT22;127;48.770;9.212;2022-07-22T10:57:51;37.50;99.90
285;DHT22;127;48.770;9.212;2022-07-22T11:00:20;38.40;99.90
285;DHT22;127;48.770;9.212;2022-07-22T11:02:58;38.70;99.90
285;DHT22;127;48.770;9.212;2022-07-22T11:05:28;38.40;99.90
285;DHT22;127;48.770;9.212;2022-07-22T11:08:08;38.70;99.90
285;DHT22;127;48.770;9.212;2022-07-22T11:10:46;39.40;99.90
285;DHT22;127;48.770;9.212;2022-07-22T11:13:30;40.50;99.90
285;DHT22;127;48.770;9.212;2022-07-22T11:16:14;41.20;99.90
285;DHT22;127;48.770;9.212;2022-07-22T11:18:57;42.30;99.90
285;DHT22;127;48.770;9.212;2022-07-22T11:21:29;43.10;99.90
285;DHT22;127;48.770;9.212;2022-07-22T11:24:02;43.30;99.90
285;DHT22;127;48.770;9.212;2022-07-22T11:26:39;42.60;99.90
285;DHT22;127;48.770;9.212;2022-07-22T11:29:10;41.40;99.90
285;DHT22;127;48.770;9.212;2022-07-22T11:31:39;41.10;99.90
285;DHT22;127;48.770;9.212;2022-07-22T11:34:10;41.10;99.90
285;DHT22;127;48.770;9.212;2022-07-22T11:36:44;41.40;99.90
285;DHT22;127;48.770;9.212;2022-07-22T11:39:19;41.50;99.90
285;DHT22;127;48.770;9.212;2022-07-22T11:41:54;41.90;99.90
285;DHT22;127;48.770;9.212;2022-07-22T11:44:34;41.60;99.90
285;DHT22;127;48.770;9.212;2022-07-22T11:47:04;42.90;99.90
285;DHT22;127;48.770;9.212;2022-07-22T11:49:34;41.60;99.90
285;DHT22;127;48.770;9.212;2022-07-22T11:52:05;42.00;99.90
285;DHT22;127;48.770;9.212;2022-07-22T12:01:13;40.20;99.90
285;DHT22;127;48.770;9.212;2022-07-22T12:03:46;41.40;98.70
285;DHT22;127;48.770;9.212;2022-07-22T12:06:17;42.50;96.50
285;DHT22;127;48.770;9.212;2022-07-22T12:08:48;41.20;97.50
285;DHT22;127;48.770;9.212;2022-07-22T12:11:21;40.20;98.70
285;DHT22;127;48.770;9.212;2022-07-22T12:13:52;40.90;97.20
285;DHT22;127;48.770;9.212;2022-07-22T12:16:25;41.30;96.10
285;DHT22;127;48.770;9.212;2022-07-22T12:18:56;43.00;92.30
285;DHT22;127;48.770;9.212;2022-07-22T12:21:28;43.20;90.30
285;DHT22;127;48.770;9.212;2022-07-22T12:24:00;43.10;87.90
285;DHT22;127;48.770;9.212;2022-07-22T12:26:40;43.20;84.80
285;DHT22;127;48.770;9.212;2022-07-22T12:29:20;43.90;80.00
285;DHT22;127;48.770;9.212;2022-07-22T12:31:54;45.20;65.40
285;DHT22;127;48.770;9.212;2022-07-22T12:34:36;44.90;65.10
285;DHT22;127;48.770;9.212;2022-07-22T12:37:14;44.20;64.60
285;DHT22;127;48.770;9.212;2022-07-22T12:39:57;44.60;64.90
285;DHT22;127;48.770;9.212;2022-07-22T12:42:28;44.70;65.00
285;DHT22;127;48.770;9.212;2022-07-22T12:45:02;43.30;64.00
285;DHT22;127;48.770;9.212;2022-07-22T12:47:50;40.00;84.20
285;DHT22;127;48.770;9.212;2022-07-22T12:50:24;42.10;74.40
285;DHT22;127;48.770;9.212;2022-07-22T12:52:54;43.20;63.90
285;DHT22;127;48.770;9.212;2022-07-22T12:55:26;43.60;64.60
285;DHT22;127;48.770;9.212;2022-07-22T12:57:55;43.30;64.30
285;DHT22;127;48.770;9.212;2022-07-22T13:00:25;42.90;63.70
285;DHT22;127;48.770;9.212;2022-07-22T13:02:57;43.00;63.70
285;DHT22;127;48.770;9.212;2022-07-22T13:05:31;42.40;63.30
285;DHT22;127;48.770;9.212;2022-07-22T13:08:00;41.50;62.60
285;DHT22;127;48.770;9.212;2022-07-22T13:10:29;42.50;63.40
285;DHT22;127;48.770;9.212;2022-07-22T13:12:58;42.50;63.30
285;DHT22;127;48.770;9.212;2022-07-22T13:15:27;43.30;63.90
285;DHT22;127;48.770;9.212;2022-07-22T13:18:06;43.70;64.70
285;DHT22;127;48.770;9.212;2022-07-22T13:20:45;43.60;64.20
285;DHT22;127;48.770;9.212;2022-07-22T13:23:33;42.60;63.40
285;DHT22;127;48.770;9.212;2022-07-22T13:26:14;43.00;63.70
285;DHT22;127;48.770;9.212;2022-07-22T13:28:51;43.50;64.10
285;DHT22;127;48.770;9.212;2022-07-22T13:31:30;42.10;63.10
285;DHT22;127;48.770;9.212;2022-07-22T13:34:21;41.80;67.70
285;DHT22;127;48.770;9.212;2022-07-22T13:37:01;42.00;63.30
285;DHT22;127;48.770;9.212;2022-07-22T13:39:49;43.00;63.70
285;DHT22;127;48.770;9.212;2022-07-22T13:42:22;42.70;63.50
285;DHT22;127;48.770;9.212;2022-07-22T13:44:50;41.80;62.80
285;DHT22;127;48.770;9.212;2022-07-22T13:47:20;43.00;68.80
285;DHT22;127;48.770;9.212;2022-07-22T13:49:52;43.70;64.30
285;DHT22;127;48.770;9.212;2022-07-22T13:52:21;42.50;63.60
285;DHT22;127;48.770;9.212;2022-07-22T13:54:51;40.80;62.10
285;DHT22;127;48.770;9.212;2022-07-22T13:57:20;40.00;61.70
285;DHT22;127;48.770;9.212;2022-07-22T13:59:49;40.80;62.00
285;DHT22;127;48.770;9.212;2022-07-22T14:02:21;42.10;63.00
285;DHT22;127;48.770;9.212;2022-07-22T14:04:52;43.50;64.30
285;DHT22;127;48.770;9.212;2022-07-22T14:07:21;44.80;65.00
285;DHT22;127;48.770;9.212;2022-07-22T14:09:50;41.90;63.30
285;DHT22;127;48.770;9.212;2022-07-22T14:12:18;41.50;67.90
285;DHT22;127;48.770;9.212;2022-07-22T14:14:47;42.30;63.20
285;DHT22;127;48.770;9.212;2022-07-22T14:17:16;43.60;64.10
285;DHT22;127;48.770;9.212;2022-07-22T14:19:45;43.60;64.10
285;DHT22;127;48.770;9.212;2022-07-22T14:22:18;42.90;63.60
285;DHT22;127;48.770;9.212;2022-07-22T14:24:47;42.10;63.10
285;DHT22;127;48.770;9.212;2022-07-22T14:27:15;42.30;63.30
285;DHT22;127;48.770;9.212;2022-07-22T14:29:44;42.40;63.70
285;DHT22;127;48.770;9.212;2022-07-22T14:32:13;39.80;61.30
285;DHT22;127;48.770;9.212;2022-07-22T14:34:41;41.10;62.30
285;DHT22;127;48.770;9.212;2022-07-22T14:37:15;42.60;63.40
285;DHT22;127;48.770;9.212;2022-07-22T14:39:46;41.60;62.60
285;DHT22;127;48.770;9.212;2022-07-22T14:42:15;40.80;62.10
285;DHT22;127;48.770;9.212;2022-07-22T14:44:44;40.80;62.00
285;DHT22;127;48.770;9.212;2022-07-22T14:47:16;39.40;61.00
285;DHT22;127;48.770;9.212;2022-07-22T14:49:45;40.90;62.10
285;DHT22;127;48.770;9.212;2022-07-22T14:52:14;42.10;63.40
285;DHT22;127;48.770;9.212;2022-07-22T14:54:42;41.50;62.60
285;DHT22;127;48.770;9.212;2022-07-22T14:57:14;41.00;62.20
285;DHT22;127;48.770;9.212;2022-07-22T14:59:43;40.30;66.80
285;DHT22;127;48.770;9.212;2022-07-22T15:02:11;41.60;62.60
285;DHT22;127;48.770;9.212;2022-07-22T15:04:40;42.60;63.40
285;DHT22;127;48.770;9.212;2022-07-22T15:07:09;42.10;63.10
285;DHT22;127;48.770;9.212;2022-07-22T15:09:38;41.40;62.50
285;DHT22;127;48.770;9.212;2022-07-22T15:12:06;41.80;62.80
285;DHT22;127;48.770;9.212;2022-07-22T15:14:38;42.20;63.10
285;DHT22;127;48.770;9.212;2022-07-22T15:17:09;42.10;63.10
285;DHT22;127;48.770;9.212;2022-07-22T15:19:38;41.10;62.20
285;DHT22;127;48.770;9.212;2022-07-22T15:22:07;41.60;62.70
285;DHT22;127;48.770;9.212;2022-07-22T15:24:36;41.70;62.70
285;DHT22;127;48.770;9.212;2022-07-22T15:27:04;41.60;62.70
285;DHT22;127;48.770;9.212;2022-07-22T15:29:33;41.50;62.60
285;DHT22;127;48.770;9.212;2022-07-22T15:32:05;41.80;62.80
285;DHT22;127;48.770;9.212;2022-07-22T15:34:34;41.00;62.60
285;DHT22;127;48.770;9.212;2022-07-22T15:37:03;40.50;62.00
285;DHT22;127;48.770;9.212;2022-07-22T15:39:32;39.90;61.40
285;DHT22;127;48.770;9.212;2022-07-22T15:42:01;40.30;61.70
285;DHT22;127;48.770;9.212;2022-07-22T15:44:30;39.70;61.30
285;DHT22;127;48.770;9.212;2022-07-22T15:47:00;40.10;61.90
285;DHT22;127;48.770;9.212;2022-07-22T15:49:31;40.80;62.00
285;DHT22;127;48.770;9.212;2022-07-22T15:52:01;41.30;62.40
285;DHT22;127;48.770;9.212;2022-07-22T15:54:30;41.80;62.80
285;DHT22;127;48.770;9.212;2022-07-22T15:57:01;41.80;62.80
285;DHT22;127;48.770;9.212;2022-07-22T15:59:43;41.40;62.50
285;DHT22;127;48.770;9.212;2022-07-22T16:02:14;41.10;62.30
285;DHT22;127;48.770;9.212;2022-07-22T16:04:46;39.40;61.00
285;DHT22;127;48.770;9.212;2022-07-22T16:07:16;39.40;61.30
285;DHT22;127;48.770;9.212;2022-07-22T16:09:48;39.70;61.20
285;DHT22;127;48.770;9.212;2022-07-22T16:12:17;39.60;61.20
285;DHT22;127;48.770;9.212;2022-07-22T16:14:47;40.00;61.50
285;DHT22;127;48.770;9.212;2022-07-22T16:17:16;40.10;61.60
285;DHT22;127;48.770;9.212;2022-07-22T16:19:47;38.10;60.50
285;DHT22;127;48.770;9.212;2022-07-22T16:22:16;37.30;59.80
285;DHT22;127;48.770;9.212;2022-07-22T16:24:44;36.40;59.30
285;DHT22;127;48.770;9.212;2022-07-22T16:27:13;35.50;58.30
285;DHT22;127;48.770;9.212;2022-07-22T16:29:42;35.70;58.50
285;DHT22;127;48.770;9.212;2022-07-22T16:32:11;35.20;58.10
285;DHT22;127;48.770;9.212;2022-07-22T16:34:39;35.40;58.30
285;DHT22;127;48.770;9.212;2022-07-22T16:37:11;35.90;58.60
285;DHT22;127;48.770;9.212;2022-07-22T16:39:40;36.60;59.00
285;DHT22;127;48.770;9.212;2022-07-22T16:42:08;37.30;59.50
285;DHT22;127;48.770;9.212;2022-07-22T16:44:37;37.60;59.80
285;DHT22;127;48.770;9.212;2022-07-22T16:47:06;37.90;59.90
285;DHT22;127;48.770;9.212;2022-07-22T16:49:36;38.10;60.10
285;DHT22;127;48.770;9.212;2022-07-22T16:52:05;38.70;60.80
285;DHT22;127;48.770;9.212;2022-07-22T16:54:36;38.90;61.00
285;DHT22;127;48.770;9.212;2022-07-22T16:57:05;38.90;60.60
285;DHT22;127;48.770;9.212;2022-07-22T16:59:34;38.70;61.00
285;DHT22;127;48.770;9.212;2022-07-22T17:02:02;38.50;60.30
285;DHT22;127;48.770;9.212;2022-07-22T17:04:31;38.70;60.60
285;DHT22;127;48.770;9.212;2022-07-22T17:07:00;38.00;60.00
285;DHT22;127;48.770;9.212;2022-07-22T17:09:29;36.40;58.80
285;DHT22;127;48.770;9.212;2022-07-22T17:12:00;35.80;58.50